sensor_id;sensor_type;location;lat;lon;timestamp;P1;durP1;ratioP1;P2;durP2;ratioP2
77310;SDS011;66371;52.714;5.074;2023-09-18T00:00:01;35.95;;;23.98;;
77310;SDS011;66371;52.714;5.074;2023-09-18T00:02:37;34.47;;;21.65;;
77310;SDS011;66371;52.714;5.074;2023-09-18T00:05:03;34.75;;;24.27;;
77310;SDS011;66371;52.714;5.074;2023-09-18T00:07:29;34.08;;;25.13;;
77310;SDS011;66371;52.714;5.074;2023-09-18T00:09:54;32.53;;;23.73;;
77310;SDS011;66371;52.714;5.074;2023-09-18T00:12:20;30.52;;;19.05;;
77310;SDS011;66371;52.714;5.074;2023-09-18T00:14:47;32.00;;;20.02;;
77310;SDS011;66371;52.714;5.074;2023-09-18T00:17:16;33.28;;;21.23;;
77310;SDS011;66371;52.714;5.074;2023-09-18T00:19:42;29.92;;;19.83;;
77310;SDS011;66371;52.714;5.074;2023-09-18T00:22:10;31.95;;;21.60;;
77310;SDS011;66371;52.714;5.074;2023-09-18T00:24:36;31.20;;;23.00;;
77310;SDS011;66371;52.714;5.074;2023-09-18T00:27:02;32.65;;;22.25;;
77310;SDS011;66371;52.714;5.074;2023-09-18T00:29:28;32.17;;;22.50;;
77310;SDS011;66371;52.714;5.074;2023-09-18T00:31:53;30.63;;;21.37;;
77310;SDS011;66371;52.714;5.074;2023-09-18T00:34:19;30.40;;;20.87;;
77310;SDS011;66371;52.714;5.074;2023-09-18T00:36:44;30.80;;;20.17;;
77310;SDS011;66371;52.714;5.074;2023-09-18T00:39:09;26.30;;;19.73;;
77310;SDS011;66371;52.714;5.074;2023-09-18T00:41:35;7.18;;;6.20;;
77310;SDS011;66371;52.714;5.074;2023-09-18T00:44:01;28.92;;;20.77;;
77310;SDS011;66371;52.714;5.074;2023-09-18T00:46:26;26.08;;;17.55;;
77310;SDS011;66371;52.714;5.074;2023-09-18T00:48:53;24.30;;;16.30;;
77310;SDS011;66371;52.714;5.074;2023-09-18T00:51:18;24.77;;;16.63;;
77310;SDS011;66371;52.714;5.074;2023-09-18T00:53:45;24.42;;;19.20;;
77310;SDS011;66371;52.714;5.074;2023-09-18T00:56:13;26.23;;;18.65;;
77310;SDS011;66371;52.714;5.074;2023-09-18T00:58:39;215.10;;;38.08;;
77310;SDS011;66371;52.714;5.074;2023-09-18T01:03:39;23.10;;;19.58;;
77310;SDS011;66371;52.714;5.074;2023-09-18T01:06:05;25.48;;;18.85;;
77310;SDS011;66371;52.714;5.074;2023-09-18T01:08:30;23.30;;;19.23;;
77310;SDS011;66371;52.714;5.074;2023-09-18T01:14:28;22.48;;;19.08;;
77310;SDS011;66371;52.714;5.074;2023-09-18T01:17:03;18.70;;;16.35;;
77310;SDS011;66371;52.714;5.074;2023-09-18T01:19:41;18.73;;;16.80;;
77310;SDS011;66371;52.714;5.074;2023-09-18T01:22:10;18.92;;;17.00;;
77310;SDS011;66371;52.714;5.074;2023-09-18T01:24:36;20.25;;;17.23;;
77310;SDS011;66371;52.714;5.074;2023-09-18T01:27:03;21.73;;;19.42;;
77310;SDS011;66371;52.714;5.074;2023-09-18T01:29:30;18.77;;;14.43;;
77310;SDS011;66371;52.714;5.074;2023-09-18T01:31:56;20.77;;;16.40;;
77310;SDS011;66371;52.714;5.074;2023-09-18T01:34:23;21.77;;;19.42;;
77310;SDS011;66371;52.714;5.074;2023-09-18T01:36:53;19.02;;;16.95;;
77310;SDS011;66371;52.714;5.074;2023-09-18T01:39:22;18.35;;;16.45;;
77310;SDS011;66371;52.714;5.074;2023-09-18T01:41:48;19.27;;;16.77;;
77310;SDS011;66371;52.714;5.074;2023-09-18T01:44:14;18.83;;;16.80;;
77310;SDS011;66371;52.714;5.074;2023-09-18T01:46:40;19.55;;;17.55;;
77310;SDS011;66371;52.714;5.074;2023-09-18T01:49:07;19.98;;;17.80;;
77310;SDS011;66371;52.714;5.074;2023-09-18T01:51:32;19.02;;;16.00;;
77310;SDS011;66371;52.714;5.074;2023-09-18T01:53:58;18.63;;;16.70;;
77310;SDS011;66371;52.714;5.074;2023-09-18T01:56:23;19.25;;;17.17;;
77310;SDS011;66371;52.714;5.074;2023-09-18T01:58:49;18.85;;;15.63;;
77310;SDS011;66371;52.714;5.074;2023-09-18T02:01:14;19.98;;;15.23;;
77310;SDS011;66371;52.714;5.074;2023-09-18T02:03:40;20.38;;;18.30;;
77310;SDS011;66371;52.714;5.074;2023-09-18T02:06:06;22.33;;;18.17;;
77310;SDS011;66371;52.714;5.074;2023-09-18T02:08:31;21.20;;;18.23;;
77310;SDS011;66371;52.714;5.074;2023-09-18T02:10:56;18.83;;;16.83;;
77310;SDS011;66371;52.714;5.074;2023-09-18T02:13:22;20.80;;;17.37;;
77310;SDS011;66371;52.714;5.074;2023-09-18T02:15:47;20.03;;;17.93;;
77310;SDS011;66371;52.714;5.074;2023-09-18T02:18:12;18.53;;;16.60;;
77310;SDS011;66371;52.714;5.074;2023-09-18T02:20:41;20.00;;;17.92;;
77310;SDS011;66371;52.714;5.074;2023-09-18T02:23:09;18.02;;;16.23;;
77310;SDS011;66371;52.714;5.074;2023-09-18T02:25:34;18.80;;;16.80;;
77310;SDS011;66371;52.714;5.074;2023-09-18T02:28:00;18.97;;;14.10;;
77310;SDS011;66371;52.714;5.074;2023-09-18T02:30:25;18.27;;;15.43;;
77310;SDS011;66371;52.714;5.074;2023-09-18T02:32:50;19.42;;;17.40;;
77310;SDS011;66371;52.714;5.074;2023-09-18T02:35:16;17.87;;;16.07;;
77310;SDS011;66371;52.714;5.074;2023-09-18T02:37:41;17.00;;;15.38;;
77310;SDS011;66371;52.714;5.074;2023-09-18T02:40:07;18.50;;;15.97;;
77310;SDS011;66371;52.714;5.074;2023-09-18T02:42:33;17.38;;;15.00;;
77310;SDS011;66371;52.714;5.074;2023-09-18T02:44:58;16.92;;;14.95;;
77310;SDS011;66371;52.714;5.074;2023-09-18T02:47:23;16.23;;;14.63;;
77310;SDS011;66371;52.714;5.074;2023-09-18T02:49:49;16.33;;;14.83;;
77310;SDS011;66371;52.714;5.074;2023-09-18T02:52:14;17.03;;;15.33;;
77310;SDS011;66371;52.714;5.074;2023-09-18T02:54:39;15.87;;;14.23;;
77310;SDS011;66371;52.714;5.074;2023-09-18T02:57:05;15.97;;;13.90;;
77310;SDS011;66371;52.714;5.074;2023-09-18T02:59:30;16.60;;;14.97;;
77310;SDS011;66371;52.714;5.074;2023-09-18T03:01:56;16.10;;;14.50;;
77310;SDS011;66371;52.714;5.074;2023-09-18T03:04:21;16.70;;;14.90;;
77310;SDS011;66371;52.714;5.074;2023-09-18T03:06:46;15.70;;;14.10;;
77310;SDS011;66371;52.714;5.074;2023-09-18T03:09:12;17.23;;;15.60;;
77310;SDS011;66371;52.714;5.074;2023-09-18T03:11:37;16.80;;;15.07;;
77310;SDS011;66371;52.714;5.074;2023-09-18T03:14:02;16.57;;;14.90;;
77310;SDS011;66371;52.714;5.074;2023-09-18T03:16:28;15.05;;;12.02;;
77310;SDS011;66371;52.714;5.074;2023-09-18T03:18:56;17.77;;;16.10;;
77310;SDS011;66371;52.714;5.074;2023-09-18T03:21:22;16.10;;;14.40;;
77310;SDS011;66371;52.714;5.074;2023-09-18T03:23:47;15.63;;;14.13;;
77310;SDS011;66371;52.714;5.074;2023-09-18T03:26:12;17.27;;;14.68;;
77310;SDS011;66371;52.714;5.074;2023-09-18T03:28:38;15.20;;;13.70;;
77310;SDS011;66371;52.714;5.074;2023-09-18T03:31:04;17.30;;;15.50;;
77310;SDS011;66371;52.714;5.074;2023-09-18T03:33:30;15.52;;;13.88;;
77310;SDS011;66371;52.714;5.074;2023-09-18T03:35:56;14.48;;;12.55;;
77310;SDS011;66371;52.714;5.074;2023-09-18T03:38:23;15.27;;;13.77;;
77310;SDS011;66371;52.714;5.074;2023-09-18T03:40:49;15.35;;;12.32;;
77310;SDS011;66371;52.714;5.074;2023-09-18T03:43:15;18.20;;;15.80;;
77310;SDS011;66371;52.714;5.074;2023-09-18T03:45:40;16.35;;;14.63;;
77310;SDS011;66371;52.714;5.074;2023-09-18T03:48:06;16.38;;;14.60;;
77310;SDS011;66371;52.714;5.074;2023-09-18T03:50:31;15.80;;;14.20;;
77310;SDS011;66371;52.714;5.074;2023-09-18T03:52:57;17.52;;;15.82;;
77310;SDS011;66371;52.714;5.074;2023-09-18T03:55:22;15.90;;;13.43;;
77310;SDS011;66371;52.714;5.074;2023-09-18T03:57:48;15.23;;;13.82;;
77310;SDS011;66371;52.714;5.074;2023-09-18T04:00:13;17.42;;;15.63;;
77310;SDS011;66371;52.714;5.074;2023-09-18T04:02:39;16.92;;;15.23;;
77310;SDS011;66371;52.714;5.074;2023-09-18T04:05:05;18.05;;;16.15;;
77310;SDS011;66371;52.714;5.074;2023-09-18T04:07:32;18.05;;;16.00;;
77310;SDS011;66371;52.714;5.074;2023-09-18T04:09:57;17.83;;;15.73;;
77310;SDS011;66371;52.714;5.074;2023-09-18T04:12:22;17.90;;;16.05;;
77310;SDS011;66371;52.714;5.074;2023-09-18T04:14:48;17.55;;;15.35;;
77310;SDS011;66371;52.714;5.074;2023-09-18T04:17:13;15.60;;;13.27;;
77310;SDS011;66371;52.714;5.074;2023-09-18T04:19:39;18.83;;;16.90;;
77310;SDS011;66371;52.714;5.074;2023-09-18T04:22:04;15.95;;;13.70;;
77310;SDS011;66371;52.714;5.074;2023-09-18T04:24:30;17.50;;;15.67;;
77310;SDS011;66371;52.714;5.074;2023-09-18T04:26:55;16.23;;;13.37;;
77310;SDS011;66371;52.714;5.074;2023-09-18T04:29:21;18.42;;;16.52;;
77310;SDS011;66371;52.714;5.074;2023-09-18T04:31:46;18.85;;;16.55;;
77310;SDS011;66371;52.714;5.074;2023-09-18T04:34:12;18.55;;;16.65;;
77310;SDS011;66371;52.714;5.074;2023-09-18T04:36:37;18.60;;;16.83;;
77310;SDS011;66371;52.714;5.074;2023-09-18T04:39:03;16.48;;;14.77;;
77310;SDS011;66371;52.714;5.074;2023-09-18T04:41:30;17.13;;;15.15;;
77310;SDS011;66371;52.714;5.074;2023-09-18T04:43:56;15.52;;;12.00;;
77310;SDS011;66371;52.714;5.074;2023-09-18T04:46:21;16.38;;;14.75;;
77310;SDS011;66371;52.714;5.074;2023-09-18T04:48:46;20.98;;;17.25;;
77310;SDS011;66371;52.714;5.074;2023-09-18T04:51:12;19.03;;;17.03;;
77310;SDS011;66371;52.714;5.074;2023-09-18T04:53:37;20.02;;;18.00;;
77310;SDS011;66371;52.714;5.074;2023-09-18T04:56:03;19.65;;;17.52;;
77310;SDS011;66371;52.714;5.074;2023-09-18T04:58:28;19.90;;;16.73;;
77310;SDS011;66371;52.714;5.074;2023-09-18T05:00:57;20.45;;;17.23;;
77310;SDS011;66371;52.714;5.074;2023-09-18T05:03:24;15.80;;;14.13;;
77310;SDS011;66371;52.714;5.074;2023-09-18T05:05:51;12.50;;;11.27;;
77310;SDS011;66371;52.714;5.074;2023-09-18T05:08:17;10.05;;;8.43;;
77310;SDS011;66371;52.714;5.074;2023-09-18T05:10:42;11.73;;;10.10;;
77310;SDS011;66371;52.714;5.074;2023-09-18T05:13:08;10.93;;;9.82;;
77310;SDS011;66371;52.714;5.074;2023-09-18T05:15:35;9.77;;;8.48;;
77310;SDS011;66371;52.714;5.074;2023-09-18T05:18:00;8.20;;;6.93;;
77310;SDS011;66371;52.714;5.074;2023-09-18T05:20:28;9.75;;;6.35;;
77310;SDS011;66371;52.714;5.074;2023-09-18T05:22:54;9.93;;;6.07;;
77310;SDS011;66371;52.714;5.074;2023-09-18T05:25:21;5.88;;;5.28;;
77310;SDS011;66371;52.714;5.074;2023-09-18T05:27:51;6.22;;;5.45;;
77310;SDS011;66371;52.714;5.074;2023-09-18T05:30:23;6.80;;;6.20;;
77310;SDS011;66371;52.714;5.074;2023-09-18T05:32:56;7.20;;;5.80;;
77310;SDS011;66371;52.714;5.074;2023-09-18T05:35:22;5.57;;;5.07;;
77310;SDS011;66371;52.714;5.074;2023-09-18T05:37:48;7.45;;;5.60;;
77310;SDS011;66371;52.714;5.074;2023-09-18T05:40:16;7.22;;;6.72;;
77310;SDS011;66371;52.714;5.074;2023-09-18T05:42:41;4.30;;;3.42;;
77310;SDS011;66371;52.714;5.074;2023-09-18T05:45:11;4.68;;;4.15;;
77310;SDS011;66371;52.714;5.074;2023-09-18T05:47:37;7.13;;;5.20;;
77310;SDS011;66371;52.714;5.074;2023-09-18T05:50:04;7.47;;;5.88;;
77310;SDS011;66371;52.714;5.074;2023-09-18T05:52:33;6.05;;;5.50;;
77310;SDS011;66371;52.714;5.074;2023-09-18T05:54:59;5.95;;;5.43;;
77310;SDS011;66371;52.714;5.074;2023-09-18T05:57:26;5.68;;;5.28;;
77310;SDS011;66371;52.714;5.074;2023-09-18T05:59:53;6.22;;;5.63;;
77310;SDS011;66371;52.714;5.074;2023-09-18T06:02:20;5.72;;;5.22;;
77310;SDS011;66371;52.714;5.074;2023-09-18T06:04:45;5.32;;;4.82;;
77310;SDS011;66371;52.714;5.074;2023-09-18T06:07:11;5.57;;;5.07;;
77310;SDS011;66371;52.714;5.074;2023-09-18T06:09:38;6.43;;;3.92;;
77310;SDS011;66371;52.714;5.074;2023-09-18T06:12:03;6.20;;;5.70;;
77310;SDS011;66371;52.714;5.074;2023-09-18T06:14:30;6.45;;;5.60;;
77310;SDS011;66371;52.714;5.074;2023-09-18T06:16:55;6.20;;;5.40;;
77310;SDS011;66371;52.714;5.074;2023-09-18T06:19:21;7.35;;;6.13;;
77310;SDS011;66371;52.714;5.074;2023-09-18T06:21:46;6.22;;;3.92;;
77310;SDS011;66371;52.714;5.074;2023-09-18T06:24:12;5.45;;;4.35;;
77310;SDS011;66371;52.714;5.074;2023-09-18T06:26:37;7.43;;;6.72;;
77310;SDS011;66371;52.714;5.074;2023-09-18T06:29:03;6.78;;;6.13;;
77310;SDS011;66371;52.714;5.074;2023-09-18T06:31:29;8.23;;;7.43;;
77310;SDS011;66371;52.714;5.074;2023-09-18T06:33:56;9.32;;;8.40;;
77310;SDS011;66371;52.714;5.074;2023-09-18T06:36:21;9.60;;;6.28;;
77310;SDS011;66371;52.714;5.074;2023-09-18T06:38:47;8.43;;;7.67;;
77310;SDS011;66371;52.714;5.074;2023-09-18T06:41:12;7.20;;;5.75;;
77310;SDS011;66371;52.714;5.074;2023-09-18T06:43:37;6.78;;;4.70;;
77310;SDS011;66371;52.714;5.074;2023-09-18T06:46:03;7.45;;;6.10;;
77310;SDS011;66371;52.714;5.074;2023-09-18T06:48:28;10.30;;;7.50;;
77310;SDS011;66371;52.714;5.074;2023-09-18T06:50:57;8.95;;;8.20;;
77310;SDS011;66371;52.714;5.074;2023-09-18T06:53:28;9.40;;;7.90;;
77310;SDS011;66371;52.714;5.074;2023-09-18T06:55:54;8.85;;;8.05;;
77310;SDS011;66371;52.714;5.074;2023-09-18T06:58:20;6.95;;;5.30;;
77310;SDS011;66371;52.714;5.074;2023-09-18T07:00:46;7.55;;;6.95;;
77310;SDS011;66371;52.714;5.074;2023-09-18T07:03:11;9.80;;;8.82;;
77310;SDS011;66371;52.714;5.074;2023-09-18T07:05:37;9.45;;;7.00;;
77310;SDS011;66371;52.714;5.074;2023-09-18T07:08:02;9.85;;;8.68;;
77310;SDS011;66371;52.714;5.074;2023-09-18T07:10:30;9.85;;;8.90;;
77310;SDS011;66371;52.714;5.074;2023-09-18T07:12:56;10.63;;;5.78;;
77310;SDS011;66371;52.714;5.074;2023-09-18T07:15:21;9.20;;;8.30;;
77310;SDS011;66371;52.714;5.074;2023-09-18T07:17:47;12.45;;;9.57;;
77310;SDS011;66371;52.714;5.074;2023-09-18T07:20:13;10.57;;;8.85;;
77310;SDS011;66371;52.714;5.074;2023-09-18T07:22:39;10.43;;;7.60;;
77310;SDS011;66371;52.714;5.074;2023-09-18T07:25:06;10.68;;;8.40;;
77310;SDS011;66371;52.714;5.074;2023-09-18T07:27:32;11.25;;;8.35;;
77310;SDS011;66371;52.714;5.074;2023-09-18T07:29:58;11.18;;;6.93;;
77310;SDS011;66371;52.714;5.074;2023-09-18T07:32:23;10.15;;;9.15;;
77310;SDS011;66371;52.714;5.074;2023-09-18T07:34:51;11.02;;;9.05;;
77310;SDS011;66371;52.714;5.074;2023-09-18T07:37:17;10.27;;;8.43;;
77310;SDS011;66371;52.714;5.074;2023-09-18T07:39:45;9.48;;;8.02;;
77310;SDS011;66371;52.714;5.074;2023-09-18T07:42:11;12.60;;;7.80;;
77310;SDS011;66371;52.714;5.074;2023-09-18T07:44:36;10.07;;;8.48;;
77310;SDS011;66371;52.714;5.074;2023-09-18T07:47:02;9.43;;;8.55;;
77310;SDS011;66371;52.714;5.074;2023-09-18T07:49:27;11.32;;;9.48;;
77310;SDS011;66371;52.714;5.074;2023-09-18T07:51:53;9.50;;;8.55;;
77310;SDS011;66371;52.714;5.074;2023-09-18T07:54:18;13.17;;;8.80;;
77310;SDS011;66371;52.714;5.074;2023-09-18T07:56:43;11.00;;;10.00;;
77310;SDS011;66371;52.714;5.074;2023-09-18T07:59:09;11.63;;;7.38;;
77310;SDS011;66371;52.714;5.074;2023-09-18T08:01:35;9.75;;;8.75;;
77310;SDS011;66371;52.714;5.074;2023-09-18T08:04:01;12.75;;;10.15;;
77310;SDS011;66371;52.714;5.074;2023-09-18T08:06:27;9.82;;;8.82;;
77310;SDS011;66371;52.714;5.074;2023-09-18T08:08:53;12.38;;;10.25;;
77310;SDS011;66371;52.714;5.074;2023-09-18T08:11:18;12.60;;;11.13;;
77310;SDS011;66371;52.714;5.074;2023-09-18T08:13:44;13.30;;;12.00;;
77310;SDS011;66371;52.714;5.074;2023-09-18T08:16:09;14.07;;;11.98;;
77310;SDS011;66371;52.714;5.074;2023-09-18T08:18:35;12.27;;;11.00;;
77310;SDS011;66371;52.714;5.074;2023-09-18T08:21:01;13.90;;;11.75;;
77310;SDS011;66371;52.714;5.074;2023-09-18T08:23:26;12.75;;;11.45;;
77310;SDS011;66371;52.714;5.074;2023-09-18T08:25:52;13.93;;;12.48;;
77310;SDS011;66371;52.714;5.074;2023-09-18T08:28:22;12.52;;;11.23;;
77310;SDS011;66371;52.714;5.074;2023-09-18T08:30:47;12.73;;;9.90;;
77310;SDS011;66371;52.714;5.074;2023-09-18T08:33:13;11.80;;;10.52;;
77310;SDS011;66371;52.714;5.074;2023-09-18T08:35:39;14.60;;;11.10;;
77310;SDS011;66371;52.714;5.074;2023-09-18T08:38:05;13.60;;;10.65;;
77310;SDS011;66371;52.714;5.074;2023-09-18T08:40:31;13.75;;;12.32;;
77310;SDS011;66371;52.714;5.074;2023-09-18T08:42:57;12.10;;;10.82;;
77310;SDS011;66371;52.714;5.074;2023-09-18T08:45:43;13.05;;;10.68;;
77310;SDS011;66371;52.714;5.074;2023-09-18T08:48:10;13.05;;;11.48;;
77310;SDS011;66371;52.714;5.074;2023-09-18T08:50:36;13.82;;;11.13;;
77310;SDS011;66371;52.714;5.074;2023-09-18T08:53:03;13.20;;;11.80;;
77310;SDS011;66371;52.714;5.074;2023-09-18T08:55:29;12.15;;;9.35;;
77310;SDS011;66371;52.714;5.074;2023-09-18T08:57:55;11.95;;;10.73;;
77310;SDS011;66371;52.714;5.074;2023-09-18T09:00:24;14.07;;;11.05;;
77310;SDS011;66371;52.714;5.074;2023-09-18T09:02:49;12.40;;;10.50;;
77310;SDS011;66371;52.714;5.074;2023-09-18T09:05:16;12.02;;;10.77;;
77310;SDS011;66371;52.714;5.074;2023-09-18T09:07:42;11.73;;;10.40;;
77310;SDS011;66371;52.714;5.074;2023-09-18T09:10:07;11.93;;;10.80;;
77310;SDS011;66371;52.714;5.074;2023-09-18T09:15:26;10.20;;;6.30;;
77310;SDS011;66371;52.714;5.074;2023-09-18T09:18:05;7.13;;;5.28;;
77310;SDS011;66371;52.714;5.074;2023-09-18T09:20:32;8.32;;;7.15;;
77310;SDS011;66371;52.714;5.074;2023-09-18T09:23:01;8.60;;;7.90;;
77310;SDS011;66371;52.714;5.074;2023-09-18T09:25:29;7.93;;;6.30;;
77310;SDS011;66371;52.714;5.074;2023-09-18T09:27:58;6.00;;;4.85;;
77310;SDS011;66371;52.714;5.074;2023-09-18T09:30:31;6.82;;;5.55;;
77310;SDS011;66371;52.714;5.074;2023-09-18T09:32:58;5.63;;;5.13;;
77310;SDS011;66371;52.714;5.074;2023-09-18T09:37:57;6.18;;;5.65;;
77310;SDS011;66371;52.714;5.074;2023-09-18T09:42:52;5.88;;;5.15;;
77310;SDS011;66371;52.714;5.074;2023-09-18T09:45:22;9.63;;;5.97;;
77310;SDS011;66371;52.714;5.074;2023-09-18T09:47:48;6.15;;;5.55;;
77310;SDS011;66371;52.714;5.074;2023-09-18T09:50:19;5.80;;;3.70;;
77310;SDS011;66371;52.714;5.074;2023-09-18T09:52:51;6.10;;;5.70;;
77310;SDS011;66371;52.714;5.074;2023-09-18T09:57:58;6.00;;;5.50;;
77310;SDS011;66371;52.714;5.074;2023-09-18T10:00:39;5.63;;;5.13;;
77310;SDS011;66371;52.714;5.074;2023-09-18T10:03:09;5.15;;;4.75;;
77310;SDS011;66371;52.714;5.074;2023-09-18T10:05:36;5.63;;;5.13;;
77310;SDS011;66371;52.714;5.074;2023-09-18T10:08:04;7.80;;;4.70;;
77310;SDS011;66371;52.714;5.074;2023-09-18T10:10:34;6.00;;;5.40;;
77310;SDS011;66371;52.714;5.074;2023-09-18T10:15:50;4.78;;;4.38;;
77310;SDS011;66371;52.714;5.074;2023-09-18T10:18:17;7.18;;;4.57;;
77310;SDS011;66371;52.714;5.074;2023-09-18T10:21:02;7.95;;;4.95;;
77310;SDS011;66371;52.714;5.074;2023-09-18T10:23:45;6.38;;;5.45;;
77310;SDS011;66371;52.714;5.074;2023-09-18T10:26:14;4.85;;;4.45;;
77310;SDS011;66371;52.714;5.074;2023-09-18T10:28:50;7.45;;;4.97;;
77310;SDS011;66371;52.714;5.074;2023-09-18T10:31:21;5.47;;;4.97;;
77310;SDS011;66371;52.714;5.074;2023-09-18T10:33:47;5.65;;;5.15;;
77310;SDS011;66371;52.714;5.074;2023-09-18T10:36:14;5.50;;;5.03;;
77310;SDS011;66371;52.714;5.074;2023-09-18T10:38:43;6.35;;;5.75;;
77310;SDS011;66371;52.714;5.074;2023-09-18T10:41:14;5.70;;;5.20;;
77310;SDS011;66371;52.714;5.074;2023-09-18T10:43:44;6.75;;;5.88;;
77310;SDS011;66371;52.714;5.074;2023-09-18T10:46:11;6.07;;;3.67;;
77310;SDS011;66371;52.714;5.074;2023-09-18T10:48:38;6.15;;;5.15;;
77310;SDS011;66371;52.714;5.074;2023-09-18T10:51:07;5.97;;;5.38;;
77310;SDS011;66371;52.714;5.074;2023-09-18T10:53:33;5.30;;;4.90;;
77310;SDS011;66371;52.714;5.074;2023-09-18T10:56:00;6.43;;;5.97;;
77310;SDS011;66371;52.714;5.074;2023-09-18T10:58:26;5.82;;;5.03;;
77310;SDS011;66371;52.714;5.074;2023-09-18T11:00:53;7.03;;;6.53;;
77310;SDS011;66371;52.714;5.074;2023-09-18T11:03:21;7.57;;;6.03;;
77310;SDS011;66371;52.714;5.074;2023-09-18T11:05:48;6.40;;;5.80;;
77310;SDS011;66371;52.714;5.074;2023-09-18T11:10:59;4.55;;;3.45;;
77310;SDS011;66371;52.714;5.074;2023-09-18T11:13:50;5.50;;;5.03;;
77310;SDS011;66371;52.714;5.074;2023-09-18T11:18:51;5.53;;;4.88;;
77310;SDS011;66371;52.714;5.074;2023-09-18T11:21:29;7.82;;;7.22;;
77310;SDS011;66371;52.714;5.074;2023-09-18T11:26:29;6.30;;;5.70;;
77310;SDS011;66371;52.714;5.074;2023-09-18T11:29:04;5.50;;;5.00;;
77310;SDS011;66371;52.714;5.074;2023-09-18T11:31:43;5.45;;;5.05;;
77310;SDS011;66371;52.714;5.074;2023-09-18T11:34:25;8.00;;;5.03;;
77310;SDS011;66371;52.714;5.074;2023-09-18T11:36:53;5.57;;;3.45;;
77310;SDS011;66371;52.714;5.074;2023-09-18T11:39:37;8.02;;;4.55;;
77310;SDS011;66371;52.714;5.074;2023-09-18T11:42:08;6.40;;;5.80;;
77310;SDS011;66371;52.714;5.074;2023-09-18T11:44:35;7.55;;;5.72;;
77310;SDS011;66371;52.714;5.074;2023-09-18T11:47:02;6.30;;;5.70;;
77310;SDS011;66371;52.714;5.074;2023-09-18T11:49:29;6.35;;;5.60;;
77310;SDS011;66371;52.714;5.074;2023-09-18T11:52:00;6.55;;;6.03;;
77310;SDS011;66371;52.714;5.074;2023-09-18T11:54:29;6.97;;;6.40;;
77310;SDS011;66371;52.714;5.074;2023-09-18T11:57:02;6.50;;;5.60;;
77310;SDS011;66371;52.714;5.074;2023-09-18T11:59:33;6.30;;;5.68;;
77310;SDS011;66371;52.714;5.074;2023-09-18T12:02:02;7.05;;;6.45;;
77310;SDS011;66371;52.714;5.074;2023-09-18T12:04:31;7.05;;;6.35;;
77310;SDS011;66371;52.714;5.074;2023-09-18T12:06:58;5.60;;;5.10;;
77310;SDS011;66371;52.714;5.074;2023-09-18T12:09:29;6.25;;;5.32;;
77310;SDS011;66371;52.714;5.074;2023-09-18T12:11:59;5.53;;;5.03;;
77310;SDS011;66371;52.714;5.074;2023-09-18T12:14:30;6.15;;;5.50;;
77310;SDS011;66371;52.714;5.074;2023-09-18T12:16:56;4.40;;;3.70;;
77310;SDS011;66371;52.714;5.074;2023-09-18T12:19:22;6.32;;;5.60;;
77310;SDS011;66371;52.714;5.074;2023-09-18T12:21:48;5.82;;;4.97;;
77310;SDS011;66371;52.714;5.074;2023-09-18T12:24:23;5.03;;;4.28;;
77310;SDS011;66371;52.714;5.074;2023-09-18T12:26:53;4.18;;;3.40;;
77310;SDS011;66371;52.714;5.074;2023-09-18T12:29:19;5.40;;;4.95;;
77310;SDS011;66371;52.714;5.074;2023-09-18T12:31:45;5.03;;;4.53;;
77310;SDS011;66371;52.714;5.074;2023-09-18T12:34:17;5.50;;;2.72;;
77310;SDS011;66371;52.714;5.074;2023-09-18T12:36:44;5.63;;;5.05;;
77310;SDS011;66371;52.714;5.074;2023-09-18T12:39:12;4.88;;;4.50;;
77310;SDS011;66371;52.714;5.074;2023-09-18T12:41:41;5.90;;;5.35;;
77310;SDS011;66371;52.714;5.074;2023-09-18T12:44:11;5.30;;;4.80;;
77310;SDS011;66371;52.714;5.074;2023-09-18T12:46:37;5.40;;;4.97;;
77310;SDS011;66371;52.714;5.074;2023-09-18T12:49:17;4.57;;;3.80;;
77310;SDS011;66371;52.714;5.074;2023-09-18T12:51:57;5.68;;;5.18;;
77310;SDS011;66371;52.714;5.074;2023-09-18T12:54:42;7.05;;;5.00;;
77310;SDS011;66371;52.714;5.074;2023-09-18T12:57:19;6.03;;;4.70;;
77310;SDS011;66371;52.714;5.074;2023-09-18T12:59:45;5.45;;;4.95;;
77310;SDS011;66371;52.714;5.074;2023-09-18T13:02:12;5.32;;;3.92;;
77310;SDS011;66371;52.714;5.074;2023-09-18T13:04:38;4.40;;;3.80;;
77310;SDS011;66371;52.714;5.074;2023-09-18T13:07:06;4.82;;;4.43;;
77310;SDS011;66371;52.714;5.074;2023-09-18T13:09:33;8.15;;;5.00;;
77310;SDS011;66371;52.714;5.074;2023-09-18T13:12:00;5.70;;;4.05;;
77310;SDS011;66371;52.714;5.074;2023-09-18T13:14:26;5.40;;;3.20;;
77310;SDS011;66371;52.714;5.074;2023-09-18T13:16:52;7.97;;;5.97;;
77310;SDS011;66371;52.714;5.074;2023-09-18T13:19:17;5.93;;;3.20;;
77310;SDS011;66371;52.714;5.074;2023-09-18T13:21:50;6.78;;;6.07;;
77310;SDS011;66371;52.714;5.074;2023-09-18T13:24:28;6.72;;;6.03;;
77310;SDS011;66371;52.714;5.074;2023-09-18T13:26:54;7.45;;;6.82;;
77310;SDS011;66371;52.714;5.074;2023-09-18T13:29:21;6.47;;;5.97;;
77310;SDS011;66371;52.714;5.074;2023-09-18T13:31:48;5.85;;;5.28;;
77310;SDS011;66371;52.714;5.074;2023-09-18T13:34:14;6.32;;;5.30;;
77310;SDS011;66371;52.714;5.074;2023-09-18T13:36:43;6.10;;;5.60;;
77310;SDS011;66371;52.714;5.074;2023-09-18T13:39:10;7.30;;;6.38;;
77310;SDS011;66371;52.714;5.074;2023-09-18T13:41:36;7.47;;;6.80;;
77310;SDS011;66371;52.714;5.074;2023-09-18T13:44:02;4.93;;;4.53;;
77310;SDS011;66371;52.714;5.074;2023-09-18T13:46:27;5.70;;;5.30;;
77310;SDS011;66371;52.714;5.074;2023-09-18T13:48:52;8.73;;;6.90;;
77310;SDS011;66371;52.714;5.074;2023-09-18T13:51:18;7.67;;;6.30;;
77310;SDS011;66371;52.714;5.074;2023-09-18T13:53:43;6.18;;;5.68;;
77310;SDS011;66371;52.714;5.074;2023-09-18T13:56:08;5.00;;;4.50;;
77310;SDS011;66371;52.714;5.074;2023-09-18T13:58:34;5.07;;;4.68;;
77310;SDS011;66371;52.714;5.074;2023-09-18T14:01:00;6.45;;;5.95;;
77310;SDS011;66371;52.714;5.074;2023-09-18T14:03:26;6.50;;;5.78;;
77310;SDS011;66371;52.714;5.074;2023-09-18T14:05:51;6.57;;;5.70;;
77310;SDS011;66371;52.714;5.074;2023-09-18T14:08:17;6.27;;;5.17;;
77310;SDS011;66371;52.714;5.074;2023-09-18T14:10:43;5.22;;;4.72;;
77310;SDS011;66371;52.714;5.074;2023-09-18T14:13:09;6.68;;;6.07;;
77310;SDS011;66371;52.714;5.074;2023-09-18T14:15:34;7.03;;;6.43;;
77310;SDS011;66371;52.714;5.074;2023-09-18T14:18:00;6.50;;;5.90;;
77310;SDS011;66371;52.714;5.074;2023-09-18T14:20:25;6.67;;;6.17;;
77310;SDS011;66371;52.714;5.074;2023-09-18T14:22:50;7.72;;;7.03;;
77310;SDS011;66371;52.714;5.074;2023-09-18T14:25:16;6.35;;;5.75;;
77310;SDS011;66371;52.714;5.074;2023-09-18T14:27:42;5.60;;;4.22;;
77310;SDS011;66371;52.714;5.074;2023-09-18T14:30:07;7.65;;;6.93;;
77310;SDS011;66371;52.714;5.074;2023-09-18T14:32:33;5.68;;;5.18;;
77310;SDS011;66371;52.714;5.074;2023-09-18T14:35:01;5.53;;;5.07;;
77310;SDS011;66371;52.714;5.074;2023-09-18T14:37:27;6.57;;;5.97;;
77310;SDS011;66371;52.714;5.074;2023-09-18T14:39:53;6.65;;;6.13;;
77310;SDS011;66371;52.714;5.074;2023-09-18T14:42:18;6.57;;;5.97;;
77310;SDS011;66371;52.714;5.074;2023-09-18T14:44:44;6.37;;;5.77;;
77310;SDS011;66371;52.714;5.074;2023-09-18T14:47:09;6.40;;;5.78;;
77310;SDS011;66371;52.714;5.074;2023-09-18T14:49:38;6.22;;;5.63;;
77310;SDS011;66371;52.714;5.074;2023-09-18T14:52:04;6.78;;;5.93;;
77310;SDS011;66371;52.714;5.074;2023-09-18T14:54:29;8.52;;;7.07;;
77310;SDS011;66371;52.714;5.074;2023-09-18T14:56:55;7.00;;;6.25;;
77310;SDS011;66371;52.714;5.074;2023-09-18T14:59:20;8.30;;;7.60;;
77310;SDS011;66371;52.714;5.074;2023-09-18T15:01:46;7.50;;;6.90;;